Time;durP1;ratioP1;P1;durP2;ratioP2;P2;SDS_P1;SDS_P2;PMS_P1;PMS_P2;Temp;Humidity;BMP_temperature;BMP_pressure;BME280_temperature;BME280_humidity;BME280_pressure;Samples;Min_cycle;Max_cycle;Signal;HPM_P1;HPM_P2
2021/11/17 02:26:48;;;;;;;97.88;51.53;;;;;;;0.17;84.72;100608.58;2082702;84;21513;-76
2021/11/17 02:30:23;;;;;;;86.55;45.92;;;;;;;0.22;84.68;100616.13;2101171;83;21062;-76
2021/11/17 02:34:13;;;;;;;79.92;42.03;;;;;;;0.28;84.51;100616.23;2107109;83;21113;-75
2021/11/17 02:37:33;;;;;;;68.50;37.23;;;;;;;0.19;84.04;100612.39;2101914;83;21034;-75
2021/11/17 02:41:06;;;;;;;91.02;47.53;;;;;;;0.05;84.05;100607.96;2108944;83;21322;-76
2021/11/17 02:44:35;;;;;;;87.00;46.20;;;;;;;-0.02;84.26;100604.04;2102747;83;21055;-75
2021/11/17 02:47:57;;;;;;;88.85;45.70;;;;;;;-0.01;84.81;100603.09;2101048;83;21042;-76
2021/11/17 02:51:18;;;;;;;85.42;44.70;;;;;;;-0.06;84.79;100591.64;2104052;83;21089;-75
2021/11/17 02:54:28;;;;;;;;;;;;;;;-0.12;84.80;100602.86;2109917;83;21015;-75
2021/11/17 02:57:57;;;;;;;79.12;40.33;;;;;;;-0.18;84.59;100598.83;2109543;83;20532;-75
2021/11/17 03:01:16;;;;;;;84.85;44.48;;;;;;;-0.23;84.67;100590.42;2092584;83;21070;-76
2021/11/17 03:04:39;;;;;;;86.20;45.52;;;;;;;-0.25;84.81;100593.59;2104899;83;21604;-76
2021/11/17 03:08:10;;;;;;;83.52;44.55;;;;;;;-0.27;84.65;100593.67;2102895;83;21031;-77
2021/11/17 03:11:32;;;;;;;86.50;45.25;;;;;;;-0.26;84.67;100589.29;2103227;83;21006;-77
2021/11/17 03:15:05;;;;;;;84.62;45.35;;;;;;;-0.24;84.80;100591.36;2101695;83;21050;-77
2021/11/17 03:18:34;;;;;;;75.52;42.70;;;;;;;-0.23;84.92;100595.64;2103589;83;21632;-77
2021/11/17 03:21:46;;;;;;;86.85;44.30;;;;;;;-0.26;84.71;100591.90;2034340;83;21014;-77
2021/11/17 03:25:12;;;;;;;81.53;42.05;;;;;;;-0.21;84.99;100591.66;2106779;83;22263;-76
2021/11/17 03:28:36;;;;;;;82.40;43.05;;;;;;;-0.10;84.94;100601.85;2081469;83;21203;-77
2021/11/17 03:32:06;;;;;;;79.05;42.23;;;;;;;-0.07;84.37;100598.23;2086280;84;21030;-77
2021/11/17 03:35:16;;;;;;;87.12;46.15;;;;;;;-0.08;84.08;100602.61;2082908;84;21042;-74
2021/11/17 03:38:49;;;;;;;98.75;47.53;;;;;;;-0.16;83.86;100600.06;2049716;84;20985;-74
2021/11/17 03:42:19;;;;;;;100.30;51.77;;;;;;;-0.29;83.72;100589.47;2062416;84;21077;-76
2021/11/17 03:45:41;;;;;;;81.42;42.70;;;;;;;-0.42;83.87;100586.72;2080888;84;21395;-75
2021/11/17 03:49:12;;;;;;;87.88;46.35;;;;;;;-0.47;84.18;100589.56;2080973;84;21072;-76
2021/11/17 03:52:24;;;;;;;82.65;45.43;;;;;;;-0.42;84.70;100591.06;2077530;84;21001;-77
2021/11/17 03:55:52;;;;;;;83.72;45.23;;;;;;;-0.38;84.70;100596.51;2079172;84;21064;-75
2021/11/17 03:59:28;;;;;;;84.58;44.10;;;;;;;-0.39;84.52;100598.28;2077165;84;21061;-75
2021/11/17 04:03:10;;;;;;;85.65;42.58;;;;;;;-0.34;84.59;100593.66;2079946;84;21009;-76
2021/11/17 04:06:36;;;;;;;89.25;47.38;;;;;;;-0.33;84.42;100591.41;2074982;84;21418;-74
2021/11/17 04:10:05;;;;;;;84.95;44.70;;;;;;;-0.37;84.35;100578.16;2079363;84;21052;-76
2021/11/17 04:13:50;;;;;;;92.12;46.70;;;;;;;-0.42;84.11;100576.29;2077502;84;21092;-75
2021/11/17 04:17:05;;;;;;;92.22;47.15;;;;;;;-0.60;84.10;100583.34;2075277;84;21079;-75
2021/11/17 04:20:18;;;;;;;89.42;45.75;;;;;;;-0.69;84.31;100568.21;2068802;84;21049;-76
2021/11/17 04:23:42;;;;;;;92.25;49.63;;;;;;;-0.72;84.45;100577.50;2080833;84;21009;-77
2021/11/17 04:27:09;;;;;;;93.65;48.95;;;;;;;-0.66;84.86;100571.95;2079189;84;21101;-76
2021/11/17 04:30:39;;;;;;;88.52;47.40;;;;;;;-0.52;84.99;100565.98;2087961;84;21096;-76
2021/11/17 04:34:07;;;;;;;87.55;47.38;;;;;;;-0.44;84.86;100557.27;2091322;84;21487;-76
2021/11/17 04:37:45;;;;;;;97.35;48.28;;;;;;;-0.44;84.70;100563.79;2077125;84;21085;-75
2021/11/17 04:41:14;;;;;;;99.75;50.28;;;;;;;-0.40;84.77;100560.07;2084767;84;21061;-75
2021/11/17 04:44:21;;;;;;;92.02;49.77;;;;;;;-0.41;84.93;100542.76;2087399;84;21048;-78
2021/11/17 04:47:28;;;;;;;83.30;43.25;;;;;;;-0.41;85.02;100549.28;2085049;84;21037;-75
2021/11/17 04:51:04;;;;;;;80.65;42.40;;;;;;;-0.39;84.92;100559.63;2086698;84;21075;-75
2021/11/17 04:54:43;;;;;;;83.75;43.78;;;;;;;-0.44;84.66;100555.97;2085054;84;21080;-76
2021/11/17 04:58:10;;;;;;;85.97;42.98;;;;;;;-0.45;84.65;100554.30;2082118;84;21057;-75
2021/11/17 05:01:39;;;;;;;80.28;41.30;;;;;;;-0.36;84.80;100554.24;2084753;84;21532;-75
2021/11/17 05:05:17;;;;;;;78.10;42.95;;;;;;;-0.29;84.65;100547.73;2083263;84;20989;-75
2021/11/17 05:08:36;;;;;;;85.92;47.10;;;;;;;-0.21;84.61;100550.76;2088695;84;21053;-75
2021/11/17 05:11:46;;;;;;;83.40;45.58;;;;;;;-0.18;84.65;100555.80;2090203;84;22342;-77
2021/11/17 05:15:31;;;;;;;84.72;44.83;;;;;;;-0.16;84.75;100545.29;2081451;84;21626;-76
2021/11/17 05:18:50;;;;;;;84.37;44.53;;;;;;;-0.14;84.73;100542.11;2083727;84;21362;-75
2021/11/17 05:22:15;;;;;;;84.70;44.30;;;;;;;-0.07;84.96;100546.89;2093570;84;21131;-75
2021/11/17 05:25:49;;;;;;;78.78;40.58;;;;;;;-0.07;84.75;100543.45;2082150;84;21010;-75
2021/11/17 05:29:27;;;;;;;88.47;44.98;;;;;;;-0.13;84.53;100538.12;2082832;84;21077;-75
2021/11/17 05:32:34;;;;;;;75.75;41.98;;;;;;;-0.07;84.75;100534.31;2064011;84;21101;-74
2021/11/17 05:35:51;;;;;;;84.97;44.05;;;;;;;-0.02;84.87;100541.42;2077517;84;21088;-75
2021/11/17 05:39:10;;;;;;;91.75;46.88;;;;;;;0.04;85.00;100546.75;2079256;84;21594;-76
2021/11/17 05:42:47;;;;;;;88.33;46.75;;;;;;;0.09;85.11;100538.20;2082798;84;21044;-75
2021/11/17 05:46:19;;;;;;;83.30;44.15;;;;;;;0.18;85.27;100537.17;2077759;84;21029;-75
2021/11/17 05:49:38;;;;;;;80.62;44.20;;;;;;;0.20;84.97;100543.16;2072424;84;21002;-78
2021/11/17 05:52:59;;;;;;;82.78;43.95;;;;;;;0.17;85.03;100538.56;2086197;84;21068;-78
2021/11/17 05:56:12;;;;;;;78.22;42.85;;;;;;;0.19;85.10;100543.23;2078571;84;21049;-77
2021/11/17 05:59:31;;;;;;;81.90;42.90;;;;;;;0.17;85.08;100540.73;2077289;84;21026;-77
2021/11/17 06:03:08;;;;;;;80.90;43.70;;;;;;;0.18;85.13;100544.17;2078235;84;20990;-78
2021/11/17 06:06:09;;;;;;;86.40;44.27;;;;;;;0.28;85.55;100541.38;2076752;84;21081;-77
2021/11/17 06:09:10;;;;;;;;;;;;;;;0.39;85.66;100536.36;2079227;84;21028;-79
2021/11/17 06:12:14;;;;;;;86.87;45.28;;;;;;;0.48;85.76;100541.52;2084814;84;20174;-78
2021/11/17 06:15:17;;;;;;;84.13;42.93;;;;;;;0.55;85.78;100534.16;2078308;84;21639;-79
2021/11/17 06:18:23;;;;;;;80.17;43.20;;;;;;;0.63;85.84;100535.84;2077437;84;20970;-77
2021/11/17 06:21:24;;;;;;;83.20;43.28;;;;;;;0.67;85.86;100540.77;2075198;84;20998;-78
2021/11/17 06:24:28;;;;;;;79.80;43.98;;;;;;;0.77;85.88;100550.20;2079669;84;21045;-76
2021/11/17 06:27:33;;;;;;;83.67;45.78;;;;;;;0.89;85.96;100541.60;2077927;84;21072;-76
2021/11/17 06:30:42;;;;;;;84.85;45.90;;;;;;;0.99;85.89;100551.03;2077923;83;21072;-77
2021/11/17 06:33:43;;;;;;;85.07;46.33;;;;;;;1.04;85.87;100546.38;2081845;84;21006;-76
2021/11/17 06:36:45;;;;;;;79.58;43.95;;;;;;;1.08;85.87;100557.47;2086482;84;21005;-75
2021/11/17 06:39:53;;;;;;;77.42;41.98;;;;;;;1.11;85.84;100558.11;2085786;84;21516;-75
2021/11/17 06:42:58;;;;;;;76.80;42.38;;;;;;;1.15;85.86;100560.52;2084920;84;21033;-75
2021/11/17 06:46:00;;;;;;;78.45;42.58;;;;;;;1.15;85.75;100554.83;2084885;84;21479;-75
2021/11/17 06:49:04;;;;;;;78.42;43.23;;;;;;;1.21;85.93;100554.91;2085850;84;21073;-75
2021/11/17 06:52:07;;;;;;;70.97;40.85;;;;;;;1.26;86.01;100554.98;2086226;84;21519;-75
2021/11/17 06:55:10;;;;;;;76.10;41.13;;;;;;;1.30;86.06;100553.05;2084505;84;21643;-78
2021/11/17 06:58:12;;;;;;;82.30;41.48;;;;;;;1.38;86.15;100549.48;2089805;83;20950;-75
2021/11/17 07:01:14;;;;;;;79.90;42.30;;;;;;;1.44;86.19;100553.48;2086107;84;21105;-75
2021/11/17 07:04:16;;;;;;;72.95;42.73;;;;;;;1.48;86.12;100550.55;2090052;84;21037;-76
2021/11/17 07:07:17;;;;;;;80.10;43.65;;;;;;;1.52;86.16;100556.42;2085237;84;21041;-75
2021/11/17 07:10:19;;;;;;;82.87;45.77;;;;;;;1.58;86.15;100553.44;2086696;84;21006;-75
2021/11/17 07:13:21;;;;;;;81.95;45.33;;;;;;;1.65;86.18;100559.10;2083287;84;21103;-75
2021/11/17 07:16:23;;;;;;;82.33;45.70;;;;;;;1.69;86.17;100554.89;2087809;84;20942;-76
2021/11/17 07:19:24;;;;;;;74.05;41.98;;;;;;;1.72;86.21;100557.78;2088026;84;21005;-77
2021/11/17 07:22:26;;;;;;;72.17;41.58;;;;;;;1.77;86.24;100563.09;2086071;84;20985;-75
2021/11/17 07:25:28;;;;;;;76.37;41.68;;;;;;;1.84;86.27;100567.92;2088119;84;21033;-75
2021/11/17 07:28:30;;;;;;;77.62;42.58;;;;;;;1.94;86.30;100568.98;2084763;84;21088;-75
2021/11/17 07:31:31;;;;;;;81.00;41.92;;;;;;;2.05;86.29;100574.82;2098835;83;21085;-76
2021/11/17 07:34:33;;;;;;;73.72;40.95;;;;;;;2.18;86.33;100567.37;2103329;83;21038;-76
2021/11/17 07:37:36;;;;;;;76.05;41.53;;;;;;;2.30;86.25;100563.56;2101285;83;21078;-75
2021/11/17 07:40:40;;;;;;;77.42;43.02;;;;;;;2.41;86.15;100567.61;2103418;83;21038;-76
2021/11/17 07:43:42;;;;;;;78.12;43.05;;;;;;;2.48;86.07;100571.51;2104566;83;21093;-76
2021/11/17 07:46:47;;;;;;;77.65;42.93;;;;;;;2.57;86.03;100576.11;2108272;83;21074;-76
2021/11/17 07:49:49;;;;;;;80.03;42.33;;;;;;;2.63;85.99;100577.00;2075269;83;21077;-76
2021/11/17 07:52:51;;;;;;;81.22;42.88;;;;;;;2.67;85.85;100577.14;2104117;83;20996;-76
2021/11/17 07:55:55;;;;;;;75.75;40.28;;;;;;;2.75;85.88;100574.48;2102950;83;21130;-76
2021/11/17 07:58:58;;;;;;;76.67;40.38;;;;;;;2.81;85.86;100574.89;2102494;83;21494;-76
2021/11/17 08:02:06;;;;;;;66.57;37.90;;;;;;;2.91;85.87;100579.87;2099120;83;21053;-76
2021/11/17 08:05:08;;;;;;;65.30;38.28;;;;;;;3.01;85.85;100573.50;2103280;83;21142;-75
2021/11/17 08:08:10;;;;;;;68.25;41.58;;;;;;;3.10;85.66;100581.23;2102922;83;21573;-75
2021/11/17 08:11:14;;;;;;;91.25;48.58;;;;;;;3.14;85.50;100578.27;2103757;83;20974;-75
2021/11/17 08:14:16;;;;;;;114.20;62.20;;;;;;;3.16;85.47;100582.11;2099608;83;21549;-79
2021/11/17 08:17:19;;;;;;;85.80;47.05;;;;;;;3.22;85.44;100582.14;2103454;83;21081;-75
2021/11/17 08:20:20;;;;;;;78.55;44.42;;;;;;;3.23;85.37;100587.75;2101897;83;21098;-75
2021/11/17 08:23:22;;;;;;;78.07;43.58;;;;;;;3.22;85.35;100591.33;2098538;83;21015;-78
2021/11/17 08:26:24;;;;;;;67.67;39.13;;;;;;;3.26;85.46;100597.54;2106630;83;20971;-75
2021/11/17 08:29:27;;;;;;;70.57;40.50;;;;;;;3.29;85.45;100597.32;2107359;83;21560;-75
2021/11/17 08:32:28;;;;;;;69.25;37.38;;;;;;;3.29;85.23;100592.55;2085340;84;21045;-75
2021/11/17 08:35:31;;;;;;;67.55;39.70;;;;;;;3.17;84.91;100591.64;2078940;84;21006;-75
2021/11/17 08:38:33;;;;;;;66.42;37.40;;;;;;;3.13;85.00;100593.64;2080570;84;21065;-79
2021/11/17 08:41:35;;;;;;;69.90;37.95;;;;;;;3.13;85.04;100594.13;2079058;84;21021;-75
2021/11/17 08:44:41;;;;;;;67.65;38.55;;;;;;;3.17;85.16;100598.67;2079047;84;21021;-78
2021/11/17 08:47:44;;;;;;;67.40;38.92;;;;;;;3.22;85.17;100593.47;2076535;84;20993;-75
2021/11/17 08:50:47;;;;;;;65.42;38.85;;;;;;;3.33;85.34;100600.11;2074023;84;21084;-81
2021/11/17 08:53:49;;;;;;;69.62;40.45;;;;;;;3.34;85.07;100600.46;2073435;84;21088;-77
2021/11/17 08:56:51;;;;;;;62.75;36.85;;;;;;;3.36;85.11;100602.98;2079939;84;21158;-76
2021/11/17 08:59:54;;;;;;;64.70;37.20;;;;;;;3.39;85.06;100606.70;2082211;84;21348;-76
2021/11/17 09:03:00;;;;;;;64.58;37.58;;;;;;;3.41;85.08;100604.82;2075842;84;21089;-77
2021/11/17 09:06:04;;;;;;;65.00;37.13;;;;;;;3.50;85.22;100608.58;2077515;83;21049;-76
2021/11/17 09:09:07;;;;;;;67.97;38.40;;;;;;;3.62;85.29;100605.54;2080266;84;21017;-77
2021/11/17 09:12:10;;;;;;;63.73;36.55;;;;;;;3.73;85.27;100613.48;2079882;84;20979;-77
2021/11/17 09:15:13;;;;;;;69.80;38.13;;;;;;;3.82;85.18;100609.70;2080311;84;21008;-77
2021/11/17 09:18:18;;;;;;;70.52;40.15;;;;;;;3.95;85.09;100611.45;2079670;84;21001;-76
2021/11/17 09:21:20;;;;;;;69.67;39.42;;;;;;;4.07;85.02;100612.34;2078978;84;21048;-76
2021/11/17 09:24:22;;;;;;;70.62;40.88;;;;;;;4.12;84.89;100614.16;2081905;84;20993;-76
2021/11/17 09:27:24;;;;;;;74.25;40.73;;;;;;;4.19;84.72;100612.73;2074496;84;21587;-78
2021/11/17 09:30:30;;;;;;;73.80;40.05;;;;;;;4.22;84.58;100616.00;2081157;84;21068;-76
2021/11/17 09:33:33;;;;;;;67.97;38.85;;;;;;;4.19;84.45;100619.30;2085201;84;21053;-76
2021/11/17 09:36:38;;;;;;;67.50;38.88;;;;;;;4.19;84.56;100617.51;2082983;84;21021;-75
2021/11/17 09:39:46;;;;;;;67.85;38.35;;;;;;;4.18;84.28;100622.41;2058262;84;21069;-75
2021/11/17 09:42:46;;;;;;;71.00;38.15;;;;;;;4.15;84.29;100622.64;2076925;84;21032;-77
2021/11/17 09:45:50;;;;;;;67.42;36.10;;;;;;;4.21;84.53;100618.72;2086354;84;21013;-77
2021/11/17 09:48:57;;;;;;;62.15;36.70;;;;;;;4.26;84.42;100618.73;2083873;84;21088;-78
2021/11/17 09:52:04;;;;;;;72.53;39.70;;;;;;;4.34;84.44;100620.81;2085865;84;21038;-78
2021/11/17 09:55:26;;;;;;;72.62;39.67;;;;;;;4.39;84.30;100610.80;2080231;84;21104;-79
2021/11/17 09:58:36;;;;;;;66.22;39.00;;;;;;;4.44;84.23;100619.63;2083074;84;21021;-76
2021/11/17 10:01:58;;;;;;;67.67;40.17;;;;;;;4.51;84.30;100618.23;2080727;84;21109;-74
2021/11/17 10:05:24;;;;;;;70.60;39.15;;;;;;;4.58;84.27;100615.97;2083205;84;21056;-73
2021/11/17 10:12:19;;;;;;;68.10;38.60;;;;;;;4.68;84.11;100614.33;2086767;84;21052;-74
2021/11/17 10:15:15;;;;;;;65.52;38.35;;;;;;;4.78;84.19;100607.39;2080953;84;21058;-73
2021/11/17 10:18:45;;;;;;;71.65;40.08;;;;;;;4.86;84.06;100605.02;2081176;84;21037;-73
2021/11/17 10:21:58;;;;;;;80.95;43.60;;;;;;;4.93;83.90;100611.98;2087202;84;21440;-74
2021/11/17 10:25:10;;;;;;;75.60;44.33;;;;;;;4.97;83.78;100606.83;2087477;84;21040;-75
2021/11/17 10:28:42;;;;;;;92.45;55.83;;;;;;;5.02;83.75;100607.80;2084869;84;21104;-78
2021/11/17 10:32:16;;;;;;;119.50;71.67;;;;;;;5.07;83.78;100597.27;2084138;84;21095;-74
2021/11/17 10:35:32;;;;;;;87.00;50.92;;;;;;;5.06;83.49;100593.43;2050639;84;21026;-74
2021/11/17 10:38:47;;;;;;;68.95;41.02;;;;;;;5.04;83.33;100595.34;2078003;84;20974;-74
2021/11/17 10:42:27;;;;;;;69.42;39.65;;;;;;;5.03;83.34;100591.05;2082215;84;20982;-75
2021/11/17 10:45:33;;;;;;;65.87;38.50;;;;;;;5.10;83.47;100589.63;2075273;83;21052;-74
2021/11/17 10:48:43;;;;;;;67.55;40.03;;;;;;;5.16;83.33;100589.14;2046006;86;21092;-76
2021/11/17 10:52:02;;;;;;;74.53;42.83;;;;;;;5.25;83.44;100584.46;2085099;84;20955;-74
2021/11/17 10:55:08;;;;;;;80.25;45.83;;;;;;;5.36;83.32;100583.13;2079397;83;21041;-74
2021/11/17 10:58:18;;;;;;;84.67;48.15;;;;;;;5.35;83.06;100584.10;2082188;84;21018;-74
2021/11/17 11:01:26;;;;;;;80.67;45.77;;;;;;;5.34;82.83;100577.14;2081877;84;21080;-74
2021/11/17 11:04:40;;;;;;;76.60;42.30;;;;;;;5.27;82.66;100576.45;2086910;84;21084;-75
2021/11/17 11:07:58;;;;;;;72.15;42.60;;;;;;;5.21;82.86;100569.89;2084644;84;20965;-75
2021/11/17 11:11:03;;;;;;;73.28;42.05;;;;;;;5.25;83.05;100573.94;2082754;84;21013;-74
2021/11/17 11:14:22;;;;;;;72.55;40.55;;;;;;;5.29;83.10;100562.67;2088714;84;21007;-75
2021/11/17 11:17:49;;;;;;;70.80;41.40;;;;;;;5.27;82.86;100564.13;2080296;83;22108;-76
2021/11/17 11:20:56;;;;;;;79.30;44.90;;;;;;;5.27;82.95;100564.13;2083772;84;21121;-75
2021/11/17 11:24:30;;;;;;;76.77;44.95;;;;;;;5.31;83.18;100564.72;2084926;84;20939;-74
2021/11/17 11:27:35;;;;;;;73.72;41.20;;;;;;;5.30;83.07;100568.31;2081534;84;20966;-75
2021/11/17 11:30:40;;;;;;;71.33;41.00;;;;;;;5.31;83.08;100572.13;2084590;84;21014;-75
2021/11/17 11:33:50;;;;;;;68.50;39.18;;;;;;;5.27;82.99;100566.77;2079970;84;21016;-74
2021/11/17 11:36:52;;;;;;;65.25;43.35;;;;;;;5.27;83.11;100570.71;2032473;84;28239;-75
2021/11/17 11:40:04;;;;;;;68.87;40.17;;;;;;;5.37;82.93;100566.86;2081782;84;21092;-75
2021/11/17 11:43:23;;;;;;;68.65;39.55;;;;;;;5.38;82.80;100563.28;2079532;84;21528;-75
2021/11/17 11:46:33;;;;;;;66.30;38.83;;;;;;;5.42;83.07;100555.97;2079461;84;20983;-76
2021/11/17 11:49:49;;;;;;;80.28;42.55;;;;;;;5.46;83.01;100548.17;2080450;84;20990;-76
2021/11/17 11:53:29;;;;;;;69.80;41.40;;;;;;;5.49;83.03;100545.30;2077486;84;21056;-75
2021/11/17 11:56:43;;;;;;;74.40;43.58;;;;;;;5.50;82.95;100535.14;2080389;84;21093;-74
2021/11/17 11:59:44;;;;;;;79.65;43.78;;;;;;;5.48;82.97;100531.79;2079116;84;21091;-74
2021/11/17 12:02:57;;;;;;;72.10;43.40;;;;;;;5.49;83.17;100530.36;2077269;84;21027;-76
2021/11/17 12:06:13;;;;;;;86.05;48.30;;;;;;;5.54;83.22;100524.70;2082190;84;21607;-74
2021/11/17 12:09:37;;;;;;;81.67;45.75;;;;;;;5.61;83.27;100523.27;2075291;84;21041;-74
2021/11/17 12:12:40;;;;;;;78.05;44.33;;;;;;;5.72;83.51;100522.39;2077089;84;21001;-77
2021/11/17 12:15:59;;;;;;;83.40;43.70;;;;;;;5.88;83.55;100520.14;2078127;84;21050;-75
2021/11/17 12:19:11;;;;;;;72.97;42.73;;;;;;;6.01;83.46;100522.16;2069267;84;22180;-78
2021/11/17 12:22:39;;;;;;;80.32;46.02;;;;;;;6.20;83.44;100528.05;2085975;84;21563;-75
2021/11/17 12:25:43;;;;;;;79.65;44.00;;;;;;;6.36;83.34;100526.75;2081719;84;21047;-74
2021/11/17 12:29:19;;;;;;;81.85;45.98;;;;;;;6.47;83.15;100520.91;2079468;84;21085;-76
2021/11/17 12:32:53;;;;;;;78.00;45.17;;;;;;;6.49;82.72;100517.67;2079212;83;21044;-78
2021/11/17 12:36:31;;;;;;;84.05;46.83;;;;;;;6.40;82.44;100525.05;2080013;84;21099;-74
2021/11/17 12:39:57;;;;;;;79.30;42.33;;;;;;;6.36;82.43;100521.48;2029527;84;21057;-76
2021/11/17 12:43:04;;;;;;;80.53;44.13;;;;;;;6.36;82.42;100525.44;2081362;84;21129;-79
2021/11/17 12:46:23;;;;;;;81.00;42.60;;;;;;;6.40;82.49;100518.47;2082650;84;21065;-83
2021/11/17 12:49:36;;;;;;;81.20;44.30;;;;;;;6.46;82.50;100522.38;2080856;84;21038;-79
2021/11/17 12:52:43;;;;;;;83.22;47.93;;;;;;;6.50;82.46;100522.46;2079860;84;21034;-79
2021/11/17 12:55:58;;;;;;;88.05;46.80;;;;;;;6.48;82.24;100527.88;2083700;84;21563;-81
2021/11/17 12:59:10;;;;;;;87.90;48.65;;;;;;;6.49;82.41;100533.49;2076828;84;21028;-79
2021/11/17 13:02:31;;;;;;;90.38;48.02;;;;;;;6.56;82.46;100532.51;2082232;84;20997;-82
2021/11/17 13:05:40;;;;;;;89.37;51.33;;;;;;;6.57;82.35;100526.26;2077559;84;21091;-80
2021/11/17 13:08:41;;;;;;;103.55;57.00;;;;;;;6.55;82.23;100526.86;2078954;84;21029;-80
2021/11/17 13:11:54;;;;;;;111.50;60.70;;;;;;;6.54;82.27;100534.44;2081012;84;21065;-80
2021/11/17 13:15:07;;;;;;;98.45;56.15;;;;;;;6.58;82.35;100527.09;2039369;84;21005;-79
2021/11/17 13:18:26;;;;;;;99.58;58.33;;;;;;;6.64;82.26;100524.75;2076774;84;22150;-80
2021/11/17 13:21:38;;;;;;;102.92;61.50;;;;;;;6.72;82.16;100519.66;2080969;84;21404;-80
2021/11/17 13:24:43;;;;;;;85.95;48.55;;;;;;;6.79;82.07;100523.94;2080303;84;20978;-79
2021/11/17 13:28:02;;;;;;;83.70;48.08;;;;;;;6.78;81.70;100524.89;2079943;84;21437;-80
2021/11/17 13:31:33;;;;;;;89.35;48.52;;;;;;;6.71;81.65;100521.13;2079173;83;21075;-79
2021/11/17 13:34:49;;;;;;;78.47;44.77;;;;;;;6.65;81.60;100514.58;2085104;84;21778;-78
2021/11/17 13:38:11;;;;;;;82.42;43.40;;;;;;;6.58;81.47;100523.13;2085587;84;21037;-79
2021/11/17 13:41:13;;;;;;;72.20;40.75;;;;;;;6.50;81.42;100513.23;2086299;84;21010;-79
2021/11/17 13:44:19;;;;;;;72.92;41.00;;;;;;;6.43;81.40;100516.88;2065244;84;21508;-79
2021/11/17 13:47:24;;;;;;;74.95;42.53;;;;;;;6.41;81.52;100521.44;2085516;84;21060;-79
2021/11/17 13:50:34;;;;;;;87.97;47.67;;;;;;;6.49;81.60;100522.13;2078649;84;21096;-80
2021/11/17 13:53:35;;;;;;;155.30;75.47;;;;;;;6.51;81.56;100524.16;2088378;84;21524;-83
2021/11/17 13:56:38;;;;;;;127.22;62.10;;;;;;;6.53;81.41;100520.88;2087132;84;21018;-79
2021/11/17 13:59:39;;;;;;;111.47;56.05;;;;;;;6.57;81.45;100526.26;2080140;84;21016;-80
2021/11/17 14:02:44;;;;;;;90.30;49.73;;;;;;;6.59;81.34;100520.84;2083457;84;21493;-81
2021/11/17 14:05:48;;;;;;;90.20;49.55;;;;;;;6.60;81.25;100535.22;2081639;84;20977;-79
2021/11/17 14:08:50;;;;;;;107.27;58.87;;;;;;;6.60;81.11;100536.55;2086053;84;21038;-80
2021/11/17 14:11:53;;;;;;;128.20;71.20;;;;;;;6.60;80.98;100534.39;2082442;84;21607;-80
2021/11/17 14:14:55;;;;;;;79.25;45.63;;;;;;;6.59;80.92;100529.61;2080814;84;21531;-83
2021/11/17 14:17:57;;;;;;;76.65;44.63;;;;;;;6.55;80.70;100530.82;2082272;84;20997;-80
2021/11/17 14:21:02;;;;;;;79.87;44.45;;;;;;;6.51;80.78;100534.70;2085502;84;21512;-79
2021/11/17 14:24:05;;;;;;;93.17;50.30;;;;;;;6.49;80.62;100525.58;2080282;84;21081;-79
2021/11/17 14:27:10;;;;;;;77.95;44.30;;;;;;;6.45;80.38;100520.72;2081484;83;21484;-79
2021/11/17 14:30:28;;;;;;;78.57;42.70;;;;;;;6.41;80.34;100527.20;2054500;84;20963;-79
2021/11/17 14:33:32;;;;;;;72.35;40.55;;;;;;;6.39;80.19;100534.39;2073403;84;21671;-81
2021/11/17 14:36:39;;;;;;;65.03;37.70;;;;;;;6.33;80.01;100531.80;2086246;84;21052;-78
2021/11/17 14:39:43;;;;;;;65.55;37.55;;;;;;;6.29;79.96;100540.45;2082271;84;21037;-76
2021/11/17 14:42:46;;;;;;;65.72;38.38;;;;;;;6.23;79.86;100542.77;2085465;84;20973;-81
2021/11/17 14:45:49;;;;;;;65.30;37.58;;;;;;;6.18;79.84;100541.83;2085317;84;21457;-82
2021/11/17 14:48:50;;;;;;;73.10;39.35;;;;;;;6.13;79.79;100541.38;2081840;84;20990;-81
2021/11/17 14:51:52;;;;;;;67.00;39.08;;;;;;;6.08;79.78;100545.36;2086005;84;21028;-81
2021/11/17 14:54:54;;;;;;;69.55;39.60;;;;;;;6.03;79.79;100533.91;2084960;84;21041;-81
2021/11/17 14:57:57;;;;;;;73.62;39.92;;;;;;;6.00;79.75;100536.80;2084894;84;21659;-81
2021/11/17 15:01:04;;;;;;;71.35;39.00;;;;;;;5.97;79.68;100534.38;2085323;84;21126;-81
2021/11/17 15:04:07;;;;;;;67.90;39.45;;;;;;;5.94;79.67;100530.23;2083591;84;21603;-81
2021/11/17 15:07:11;;;;;;;69.10;37.58;;;;;;;5.94;79.71;100528.91;2085398;84;21049;-81
2021/11/17 15:10:15;;;;;;;62.73;38.05;;;;;;;5.99;79.79;100525.88;2085082;84;20990;-81
2021/11/17 15:13:18;;;;;;;78.65;42.20;;;;;;;6.06;79.82;100524.42;2085229;84;21092;-80
2021/11/17 15:16:21;;;;;;;71.45;40.40;;;;;;;6.03;79.47;100528.14;2082274;84;21314;-77
2021/11/17 15:19:25;;;;;;;71.25;41.68;;;;;;;6.02;79.48;100538.31;2087983;84;20997;-76
2021/11/17 15:22:27;;;;;;;77.58;41.10;;;;;;;6.00;79.49;100534.16;2082118;84;21061;-75
2021/11/17 15:25:37;;;;;;;70.52;39.90;;;;;;;5.97;79.42;100538.33;2085791;84;21500;-75
2021/11/17 15:28:44;;;;;;;64.97;37.65;;;;;;;5.94;79.35;100543.86;2085611;84;21520;-77
2021/11/17 15:31:46;;;;;;;71.70;39.85;;;;;;;5.92;79.35;100551.04;2088481;84;20994;-76
2021/11/17 15:34:48;;;;;;;66.25;36.80;;;;;;;5.90;79.31;100551.64;2083734;84;21060;-77
2021/11/17 15:37:50;;;;;;;72.42;40.45;;;;;;;5.88;79.33;100549.60;2082362;84;20981;-76
2021/11/17 15:40:57;;;;;;;73.78;39.70;;;;;;;5.89;79.31;100559.20;2080283;84;21021;-76
2021/11/17 15:43:59;;;;;;;66.65;37.45;;;;;;;5.87;79.25;100555.36;2082062;84;21100;-77
2021/11/17 15:47:06;;;;;;;62.38;36.55;;;;;;;5.90;79.27;100555.10;2079054;84;21525;-77
2021/11/17 15:50:13;;;;;;;66.82;35.63;;;;;;;5.87;79.08;100557.16;2076855;84;20954;-76
2021/11/17 15:53:15;;;;;;;62.40;34.65;;;;;;;5.85;79.05;100561.22;2080041;84;21095;-78
2021/11/17 15:56:18;;;;;;;56.58;31.73;;;;;;;5.82;79.09;100564.11;2080959;84;21013;-77
2021/11/17 15:59:20;;;;;;;60.50;33.80;;;;;;;5.79;79.03;100557.30;2082782;84;21437;-77
2021/11/17 16:02:23;;;;;;;64.97;35.28;;;;;;;5.81;79.08;100554.55;2079980;84;21036;-76
2021/11/17 16:05:25;;;;;;;60.25;36.00;;;;;;;5.82;79.04;100554.89;2077445;84;20954;-76
2021/11/17 16:08:27;;;;;;;64.32;34.58;;;;;;;5.82;79.01;100547.82;2084013;84;21038;-77
2021/11/17 16:11:28;;;;;;;66.15;36.80;;;;;;;5.83;78.99;100553.46;2084271;84;21080;-76
2021/11/17 16:14:31;;;;;;;63.48;35.63;;;;;;;5.81;78.94;100551.42;2080715;84;21097;-81
2021/11/17 16:17:37;;;;;;;59.95;34.83;;;;;;;5.77;78.88;100543.44;2079484;84;21089;-77
2021/11/17 16:20:55;;;;;;;76.60;41.25;;;;;;;5.73;78.94;100549.90;2081419;84;20959;-78
2021/11/17 16:27:14;;;;;;;;;;;;;;;5.70;78.97;100563.31;2086954;84;21053;-78
2021/11/17 16:30:20;;;;;;;61.80;34.13;;;;;;;5.67;78.98;100563.56;2078814;84;20552;-77
2021/11/17 16:33:23;;;;;;;64.65;35.55;;;;;;;5.67;79.04;100566.69;2080918;83;21128;-77
2021/11/17 16:36:25;;;;;;;64.10;33.60;;;;;;;5.68;79.04;100565.23;2084949;84;21089;-77
2021/11/17 16:39:27;;;;;;;66.62;37.45;;;;;;;5.71;79.11;100558.87;2084850;84;21159;-78
2021/11/17 16:42:29;;;;;;;83.47;45.65;;;;;;;5.78;79.12;100554.80;2082014;84;20982;-78
2021/11/17 16:45:32;;;;;;;87.80;45.35;;;;;;;5.83;79.03;100557.41;2084045;84;21049;-77
2021/11/17 16:48:33;;;;;;;80.92;41.23;;;;;;;5.90;79.01;100563.00;2084256;84;20981;-76
2021/11/17 16:51:37;;;;;;;75.28;41.80;;;;;;;5.91;78.90;100554.61;2083601;84;21052;-77
2021/11/17 16:54:43;;;;;;;75.30;40.78;;;;;;;5.90;78.79;100566.95;2084657;84;21092;-76
2021/11/17 16:57:49;;;;;;;69.70;38.17;;;;;;;5.89;78.78;100571.05;2088143;84;21526;-80
2021/11/17 17:00:58;;;;;;;71.25;39.48;;;;;;;5.86;78.69;100570.81;2082782;83;21006;-77
2021/11/17 17:03:59;;;;;;;64.60;35.92;;;;;;;5.81;78.65;100576.93;2075695;84;21306;-77
2021/11/17 17:07:01;;;;;;;67.12;36.53;;;;;;;5.81;78.71;100574.30;2090536;84;20993;-76
2021/11/17 17:10:09;;;;;;;67.40;37.63;;;;;;;5.84;78.75;100572.73;2052397;84;20962;-75
2021/11/17 17:13:11;;;;;;;68.28;37.08;;;;;;;5.81;78.65;100577.77;2083975;84;21071;-77